createdAt,value
2022-11-20T00:00:22.886Z,99337.38
2022-11-20T00:02:50.242Z,99328.97
2022-11-20T00:05:18.062Z,99336.44
2022-11-20T00:07:45.280Z,99344.81
2022-11-20T00:10:14.222Z,99335.69
2022-11-20T00:12:41.505Z,99344.59
2022-11-20T00:15:11.181Z,99339.97
2022-11-20T00:17:38.472Z,99344.53
2022-11-20T00:20:06.663Z,99339.59
2022-11-20T00:22:34.062Z,99341.28
2022-11-20T00:25:01.498Z,99343.56
2022-11-20T00:27:31.984Z,99341.97
2022-11-20T00:29:59.310Z,99339.38
2022-11-20T00:32:26.538Z,99346.00
2022-11-20T00:34:53.808Z,99343.44
2022-11-20T00:37:21.224Z,99345.84
2022-11-20T00:39:48.719Z,99351.66
2022-11-20T00:42:15.930Z,99348.22
2022-11-20T00:44:44.709Z,99349.16
2022-11-20T00:47:11.880Z,99334.22
2022-11-20T00:49:39.215Z,99344.81
2022-11-20T00:52:06.585Z,99340.53
2022-11-20T00:54:33.832Z,99350.44
2022-11-20T00:57:01.043Z,99346.94
2022-11-20T00:59:28.269Z,99355.22
2022-11-20T01:01:56.841Z,99341.88
2022-11-20T01:04:24.114Z,99353.50
2022-11-20T01:06:51.425Z,99351.06
2022-11-20T01:09:19.024Z,99351.88
2022-11-20T01:11:46.670Z,99350.19
2022-11-20T01:14:17.824Z,99347.00
2022-11-20T01:16:47.786Z,99345.25
2022-11-20T01:19:18.556Z,99330.81
2022-11-20T01:21:47.564Z,99357.94
2022-11-20T01:24:17.746Z,99334.13
2022-11-20T01:26:48.278Z,99354.47
2022-11-20T01:29:17.936Z,99333.19
2022-11-20T01:31:45.794Z,99350.44
2022-11-20T01:34:15.178Z,99349.50
2022-11-20T01:36:44.114Z,99355.44
2022-11-20T01:39:13.723Z,99355.44
2022-11-20T01:42:01.286Z,99350.63
2022-11-20T01:44:50.401Z,99362.25
2022-11-20T01:47:21.928Z,99344.38
2022-11-20T01:49:54.165Z,99360.00
2022-11-20T01:52:25.745Z,99350.19
2022-11-20T01:54:57.639Z,99369.13
2022-11-20T01:57:27.261Z,99371.78
2022-11-20T02:00:00.766Z,99370.22
2022-11-20T02:02:28.552Z,99383.50
2022-11-20T02:05:01.190Z,99382.03
2022-11-20T02:07:32.621Z,99394.47
2022-11-20T02:10:00.097Z,99386.22
2022-11-20T02:12:46.171Z,99390.44
2022-11-20T02:15:34.161Z,99396.38
2022-11-20T02:18:01.600Z,99401.53
2022-11-20T02:20:29.101Z,99393.28
2022-11-20T02:23:02.867Z,99403.28
2022-11-20T02:25:34.816Z,99402.41
2022-11-20T02:28:03.200Z,99404.03
2022-11-20T02:30:30.431Z,99407.44
2022-11-20T02:32:58.978Z,99410.09
2022-11-20T02:35:46.670Z,99407.59
2022-11-20T02:38:14.756Z,99416.56
2022-11-20T02:40:43.651Z,99411.84
2022-11-20T02:43:11.049Z,99412.66
2022-11-20T02:45:38.352Z,99409.41
2022-11-20T02:48:08.541Z,99405.50
2022-11-20T02:50:39.501Z,99416.84
2022-11-20T02:53:07.192Z,99415.22
2022-11-20T02:55:34.507Z,99416.84
2022-11-20T02:58:03.371Z,99413.63
2022-11-20T03:00:30.916Z,99405.19
2022-11-20T03:02:58.270Z,99415.22
2022-11-20T03:05:25.532Z,99423.69
2022-11-20T03:07:52.835Z,99417.13
2022-11-20T03:10:20.160Z,99416.47
2022-11-20T03:12:47.380Z,99424.72
2022-11-20T03:15:16.148Z,99424.78
2022-11-20T03:17:43.432Z,99426.41
2022-11-20T03:20:12.120Z,99432.31
2022-11-20T03:22:39.315Z,99438.13
2022-11-20T03:25:07.481Z,99440.69
2022-11-20T03:27:35.567Z,99430.81
2022-11-20T03:30:03.886Z,99425.72
2022-11-20T03:32:32.897Z,99426.47
2022-11-20T03:35:00.503Z,99435.56
2022-11-20T03:37:27.968Z,99441.44
2022-11-20T03:39:55.268Z,99438.94
2022-11-20T03:42:41.006Z,99443.94
2022-11-20T03:45:09.040Z,99448.88
2022-11-20T03:47:37.827Z,99445.56
2022-11-20T03:50:06.240Z,99450.59
2022-11-20T03:52:33.523Z,99450.59
2022-11-20T03:55:00.931Z,99443.19
2022-11-20T03:57:28.137Z,99451.66
2022-11-20T03:59:55.771Z,99455.72
2022-11-20T04:02:23.447Z,99460.66
2022-11-20T04:04:52.395Z,99456.53
2022-11-20T04:07:19.719Z,99455.88
2022-11-20T04:09:47.011Z,99459.91
2022-11-20T04:12:14.205Z,99471.59
2022-11-20T04:14:41.423Z,99473.31
2022-11-20T04:17:08.600Z,99470.78
2022-11-20T04:19:35.884Z,99466.00
2022-11-20T04:22:04.537Z,99479.13
2022-11-20T04:24:31.664Z,99480.91
2022-11-20T04:26:58.858Z,99473.44
2022-11-20T04:29:26.392Z,99475.88
2022-11-20T04:31:53.721Z,99481.63
2022-11-20T04:34:21.030Z,99483.25
2022-11-20T04:36:48.289Z,99481.72
2022-11-20T04:39:17.204Z,99477.53
2022-11-20T04:41:44.516Z,99489.13
2022-11-20T04:44:11.927Z,99481.72
2022-11-20T04:46:40.686Z,99500.13
2022-11-20T04:49:08.741Z,99507.69
2022-11-20T04:51:36.403Z,99499.44
2022-11-20T04:54:04.251Z,99504.47
2022-11-20T04:56:33.058Z,99517.09
2022-11-20T04:59:02.464Z,99516.22
2022-11-20T05:01:29.867Z,99523.13
2022-11-20T05:03:57.189Z,99522.97
2022-11-20T05:06:24.441Z,99527.25
2022-11-20T05:08:51.932Z,99528.88
2022-11-20T05:11:21.203Z,99528.13
2022-11-20T05:13:50.750Z,99529.59
2022-11-20T05:16:19.894Z,99527.84
2022-11-20T05:18:47.906Z,99539.63
2022-11-20T05:21:15.560Z,99549.63
2022-11-20T05:23:43.636Z,99552.94
2022-11-20T05:26:15.003Z,99558.72
2022-11-20T05:28:42.471Z,99538.81
2022-11-20T05:31:12.873Z,99551.13
2022-11-20T05:33:42.103Z,99554.53
2022-11-20T05:36:10.478Z,99559.38
2022-11-20T05:38:38.210Z,99561.03
2022-11-20T05:41:06.574Z,99562.66
2022-11-20T05:43:34.995Z,99565.88
2022-11-20T05:46:02.668Z,99570.06
2022-11-20T05:48:32.159Z,99576.66
2022-11-20T05:51:00.144Z,99577.47
2022-11-20T05:53:27.905Z,99575.91
2022-11-20T05:55:59.392Z,99588.56
2022-11-20T05:58:26.845Z,99577.78
2022-11-20T06:00:54.220Z,99590.31
2022-11-20T06:03:21.556Z,99594.44
2022-11-20T06:05:50.177Z,99595.38
2022-11-20T06:08:17.609Z,99595.31
2022-11-20T06:10:45.100Z,99603.63
2022-11-20T06:13:12.298Z,99612.84
2022-11-20T06:15:39.456Z,99619.63
2022-11-20T06:18:06.696Z,99625.41
2022-11-20T06:20:37.870Z,99621.50
2022-11-20T06:23:09.567Z,99623.25
2022-11-20T06:25:38.841Z,99626.50
2022-11-20T06:28:06.289Z,99629.13
2022-11-20T06:30:33.538Z,99630.75
2022-11-20T06:33:00.784Z,99629.13
2022-11-20T06:35:28.084Z,99631.56
2022-11-20T06:37:56.521Z,99632.44
2022-11-20T06:40:25.120Z,99629.00
2022-11-20T06:42:52.399Z,99633.00
2022-11-20T06:45:19.643Z,99620.81
2022-11-20T06:47:46.933Z,99625.81
2022-11-20T06:50:14.343Z,99628.41
2022-11-20T06:52:43.776Z,99633.41
2022-11-20T06:55:11.204Z,99633.25
2022-11-20T06:57:40.096Z,99616.56
2022-11-20T07:00:08.586Z,99619.06
2022-11-20T07:02:35.972Z,99618.25
2022-11-20T07:05:03.578Z,99621.56
2022-11-20T07:07:31.428Z,99624.94
2022-11-20T07:09:58.740Z,99638.28
2022-11-20T07:12:26.095Z,99625.59
2022-11-20T07:14:54.630Z,99633.75
2022-11-20T07:17:22.108Z,99631.94
2022-11-20T07:19:49.437Z,99637.63
2022-11-20T07:22:16.755Z,99640.88
2022-11-20T07:24:46.108Z,99633.53
2022-11-20T07:27:13.554Z,99634.34
2022-11-20T07:29:40.852Z,99640.88
2022-11-20T07:32:09.637Z,99640.75
2022-11-20T07:34:36.976Z,99637.47
2022-11-20T07:37:10.091Z,99649.00
2022-11-20T07:39:37.825Z,99654.03
2022-11-20T07:42:05.136Z,99647.38
2022-11-20T07:44:32.433Z,99657.31
2022-11-20T07:47:00.074Z,99652.25
2022-11-20T07:49:28.969Z,99662.88
2022-11-20T07:51:59.332Z,99657.09
2022-11-20T07:54:30.507Z,99655.38
2022-11-20T07:56:57.950Z,99656.19
2022-11-20T07:59:25.111Z,99662.13
2022-11-20T08:01:52.306Z,99661.03
2022-11-20T08:04:19.544Z,99659.34
2022-11-20T08:06:48.193Z,99662.63
2022-11-20T08:09:15.918Z,99670.38
2022-11-20T08:12:01.478Z,99690.44
2022-11-20T08:14:28.834Z,99675.41
2022-11-20T08:16:56.168Z,99667.69
2022-11-20T08:19:23.522Z,99669.25
2022-11-20T08:21:52.417Z,99679.34
2022-11-20T08:24:19.828Z,99679.38
2022-11-20T08:26:47.526Z,99672.69
2022-11-20T08:29:14.838Z,99674.13
2022-11-20T08:31:43.075Z,99680.81
2022-11-20T08:34:12.912Z,99687.22
2022-11-20T08:36:44.739Z,99688.03
2022-11-20T08:39:14.318Z,99673.97
2022-11-20T08:41:41.652Z,99685.56
2022-11-20T08:44:09.760Z,99688.94
2022-11-20T08:46:39.341Z,99698.81
2022-11-20T08:49:08.251Z,99695.44
2022-11-20T08:51:35.742Z,99709.56
2022-11-20T08:54:03.741Z,99721.22
2022-11-20T08:56:32.952Z,99728.63
2022-11-20T09:01:48.004Z,99727.00
2022-11-20T09:04:15.535Z,99733.66
2022-11-20T09:06:42.862Z,99744.38
2022-11-20T09:09:10.173Z,99745.97
2022-11-20T09:11:39.022Z,99745.88
2022-11-20T09:14:06.300Z,99746.59
2022-11-20T09:16:33.795Z,99753.03
2022-11-20T09:19:34.145Z,99750.22
2022-11-20T09:21:48.246Z,99764.09
2022-11-20T09:24:15.727Z,99768.50
2022-11-20T09:26:44.883Z,99770.13
2022-11-20T09:29:12.145Z,99779.22
2022-11-20T09:31:39.491Z,99789.97
2022-11-20T09:34:07.092Z,99777.19
2022-11-20T09:36:34.296Z,99789.84
2022-11-20T09:39:01.507Z,99779.91
2022-11-20T09:41:49.252Z,99786.34
2022-11-20T09:44:29.563Z,99767.22
2022-11-20T09:47:03.513Z,99773.00
2022-11-20T09:49:39.017Z,99778.72
2022-11-20T09:52:19.537Z,99769.41
2022-11-20T09:54:47.106Z,99775.22
2022-11-20T09:57:20.135Z,99788.69
2022-11-20T09:59:53.734Z,99781.94
2022-11-20T10:02:31.789Z,99787.06
2022-11-20T10:05:05.163Z,99790.19
2022-11-20T10:07:39.718Z,99786.25
2022-11-20T10:10:16.144Z,99797.03
2022-11-20T10:13:00.811Z,99771.63
2022-11-20T10:15:38.762Z,99788.44
2022-11-20T10:18:21.427Z,99797.41
2022-11-20T10:20:57.914Z,99801.31
2022-11-20T10:23:49.163Z,99800.97
2022-11-20T10:26:23.298Z,99800.09
2022-11-20T10:29:07.541Z,99800.16
2022-11-20T10:31:43.518Z,99802.66
2022-11-20T10:34:22.592Z,99812.63
2022-11-20T10:36:53.723Z,99807.69
2022-11-20T10:39:31.240Z,99804.44
2022-11-20T10:41:59.189Z,99809.53
2022-11-20T10:44:51.113Z,99794.88
2022-11-20T10:47:23.300Z,99822.06
2022-11-20T10:49:54.372Z,99823.00
2022-11-20T10:52:31.732Z,99820.56
2022-11-20T10:55:13.136Z,99828.34
2022-11-20T10:57:57.792Z,99807.84
2022-11-20T11:00:25.528Z,99828.56
2022-11-20T11:02:56.132Z,99834.47
2022-11-20T11:05:35.785Z,99844.63
2022-11-20T11:08:06.389Z,99830.72
2022-11-20T11:10:42.423Z,99842.84
2022-11-20T11:13:21.031Z,99849.66
2022-11-20T11:15:48.492Z,99846.31
2022-11-20T11:18:27.243Z,99840.91
2022-11-20T11:20:56.047Z,99841.88
2022-11-20T11:23:35.245Z,99844.28
2022-11-20T11:26:05.445Z,99851.13
2022-11-20T11:28:32.924Z,99839.63
2022-11-20T11:31:00.276Z,99840.34
2022-11-20T11:33:30.769Z,99842.25
2022-11-20T11:36:00.747Z,99839.63
2022-11-20T11:38:35.919Z,99843.16
2022-11-20T11:41:04.712Z,99841.56
2022-11-20T11:43:53.333Z,99839.25
2022-11-20T11:46:30.376Z,99831.31
2022-11-20T11:49:01.278Z,99850.09
2022-11-20T11:51:36.823Z,99851.84
2022-11-20T11:54:12.577Z,99849.44
2022-11-20T11:56:40.123Z,99857.69
2022-11-20T11:59:17.957Z,99862.69
2022-11-20T12:01:50.296Z,99861.88
2022-11-20T12:04:28.553Z,99860.97
2022-11-20T12:07:18.336Z,99859.19
2022-11-20T12:09:55.000Z,99855.78
2022-11-20T12:12:26.028Z,99865.81
2022-11-20T12:14:56.013Z,99862.78
2022-11-20T12:17:23.424Z,99865.97
2022-11-20T12:19:52.690Z,99861.97
2022-11-20T12:22:33.335Z,99857.84
2022-11-20T12:25:05.996Z,99860.47
2022-11-20T12:28:18.685Z,99850.50
2022-11-20T12:30:54.685Z,99853.06
2022-11-20T12:33:47.105Z,99853.06
2022-11-20T12:36:25.033Z,99852.97
2022-11-20T12:39:34.356Z,99858.91
2022-11-20T12:43:04.544Z,99866.56
2022-11-20T12:45:47.332Z,99863.09
2022-11-20T12:48:41.162Z,99868.00
2022-11-20T12:51:30.682Z,99863.88
2022-11-20T12:54:12.471Z,99870.38
2022-11-20T12:56:51.152Z,99854.97
2022-11-20T12:59:30.531Z,99872.31
2022-11-20T13:02:04.375Z,99845.19
2022-11-20T13:04:48.708Z,99884.66
2022-11-20T13:07:18.771Z,99876.41
2022-11-20T13:09:49.649Z,99876.50
2022-11-20T13:12:24.155Z,99875.63
2022-11-20T13:14:58.822Z,99869.75
2022-11-20T13:17:32.032Z,99869.94
2022-11-20T13:20:00.260Z,99875.88
2022-11-20T13:22:30.185Z,99884.22
2022-11-20T13:24:57.609Z,99891.81
2022-11-20T13:27:25.552Z,99902.59
2022-11-20T13:30:14.110Z,99901.16
2022-11-20T13:32:50.247Z,99890.38
2022-11-20T13:35:30.217Z,99893.78
2022-11-20T13:38:05.823Z,99895.41
2022-11-20T13:40:33.421Z,99893.72
2022-11-20T13:43:16.875Z,99902.72
2022-11-20T13:45:57.353Z,99905.34
2022-11-20T13:48:27.552Z,99900.47
2022-11-20T13:51:16.445Z,99900.34
2022-11-20T13:54:10.071Z,99910.25
2022-11-20T13:56:50.520Z,99916.75
2022-11-20T13:59:34.464Z,99915.13
2022-11-20T14:02:02.415Z,99904.38
2022-11-20T14:04:34.462Z,99914.25
2022-11-20T14:07:02.198Z,99912.56
2022-11-20T14:09:33.009Z,99898.84
2022-11-20T14:12:00.469Z,99927.72
2022-11-20T14:14:29.160Z,99926.78
2022-11-20T14:17:07.570Z,99932.56
2022-11-20T14:19:35.403Z,99924.28
2022-11-20T14:22:17.248Z,99929.44
2022-11-20T14:24:46.684Z,99927.72
2022-11-20T14:27:16.652Z,99928.66
2022-11-20T14:29:45.854Z,99935.13
2022-11-20T14:32:17.368Z,99935.00
2022-11-20T14:34:47.146Z,99931.94
2022-11-20T14:37:24.649Z,99952.44
2022-11-20T14:39:55.324Z,99955.75
2022-11-20T14:42:25.590Z,99944.59
2022-11-20T14:44:56.789Z,99966.03
2022-11-20T14:47:27.141Z,99964.44
2022-11-20T14:49:56.190Z,99963.00
2022-11-20T14:52:25.127Z,99957.94
2022-11-20T14:54:55.343Z,99951.38
2022-11-20T14:57:26.367Z,99944.09
2022-11-20T15:00:05.939Z,99933.28
2022-11-20T15:02:33.583Z,99940.00
2022-11-20T15:05:05.439Z,99946.69
2022-11-20T15:07:38.200Z,99956.72
2022-11-20T15:10:09.810Z,99961.63
2022-11-20T15:12:40.973Z,99939.91
2022-11-20T15:15:13.315Z,99955.63
2022-11-20T15:17:41.974Z,99944.78
2022-11-20T15:20:15.424Z,99936.38
2022-11-20T15:22:43.187Z,99928.91
2022-11-20T15:25:16.972Z,99939.69
2022-11-20T15:27:45.438Z,99930.41
2022-11-20T15:30:18.363Z,99938.84
2022-11-20T15:32:47.249Z,99946.41
2022-11-20T15:35:15.904Z,99933.19
2022-11-20T15:37:43.428Z,99946.41
2022-11-20T15:40:11.466Z,99946.41
2022-11-20T15:43:01.186Z,99937.31
2022-11-20T15:45:30.552Z,99937.31
2022-11-20T15:47:58.084Z,99938.19
2022-11-20T15:50:28.607Z,99927.41
2022-11-20T15:52:55.827Z,99934.13
2022-11-20T15:55:23.036Z,99929.16
2022-11-20T15:57:51.629Z,99931.75
2022-11-20T16:00:23.658Z,99942.63
2022-11-20T16:02:51.181Z,99952.66
2022-11-20T16:05:19.393Z,99957.81
2022-11-20T16:07:46.689Z,99957.88
2022-11-20T16:10:14.029Z,99939.69
2022-11-20T16:13:00.032Z,99935.31
2022-11-20T16:15:48.020Z,99931.84
2022-11-20T16:18:17.984Z,99921.00
2022-11-20T16:20:46.690Z,99922.91
2022-11-20T16:23:14.402Z,99910.66
2022-11-20T16:25:42.102Z,99915.56
2022-11-20T16:28:10.257Z,99923.06
2022-11-20T16:30:40.968Z,99942.16
2022-11-20T16:33:12.023Z,99938.00
2022-11-20T16:35:39.928Z,99935.31
2022-11-20T16:38:07.370Z,99934.44
2022-11-20T16:40:34.614Z,99937.88
2022-11-20T16:43:10.177Z,99936.13
2022-11-20T16:45:43.178Z,99931.94
2022-11-20T16:48:15.217Z,99925.22
2022-11-20T16:50:51.284Z,99927.03
2022-11-20T16:53:19.563Z,99938.72
2022-11-20T16:55:47.288Z,99932.84
2022-11-20T16:58:15.076Z,99929.53
2022-11-20T17:00:49.965Z,99947.06
2022-11-20T17:03:19.313Z,99937.94
2022-11-20T17:05:46.592Z,99922.91
2022-11-20T17:08:13.845Z,99906.34
2022-11-20T17:10:41.126Z,99907.16
2022-11-20T17:13:08.330Z,99906.44
2022-11-20T17:15:35.659Z,99912.19
2022-11-20T17:18:04.572Z,99899.66
2022-11-20T17:20:32.441Z,99899.53
2022-11-20T17:22:59.798Z,99910.28
2022-11-20T17:25:27.113Z,99920.94
2022-11-20T17:27:54.906Z,99927.41
2022-11-20T17:30:22.191Z,99923.03
2022-11-20T17:32:49.414Z,99928.81
2022-11-20T17:35:18.034Z,99922.88
2022-11-20T17:37:45.638Z,99932.81
2022-11-20T17:40:13.479Z,99938.44
2022-11-20T17:42:40.832Z,99948.41
2022-11-20T17:45:08.504Z,99944.16
2022-11-20T17:47:37.197Z,99944.91
2022-11-20T17:50:04.963Z,99932.47
2022-11-20T17:52:33.745Z,99935.75
2022-11-20T17:55:01.178Z,99947.34
2022-11-20T17:57:47.314Z,99948.09
2022-11-20T18:00:17.323Z,99942.31
2022-11-20T18:02:44.671Z,99954.75
2022-11-20T18:05:12.543Z,99947.22
2022-11-20T18:07:41.911Z,99941.34
2022-11-20T18:10:10.186Z,99932.91
2022-11-20T18:12:37.473Z,99938.63
2022-11-20T18:15:05.237Z,99939.38
2022-11-20T18:17:32.569Z,99945.97
2022-11-20T18:22:48.580Z,99937.06
2022-11-20T18:25:16.101Z,99948.47
2022-11-20T18:27:43.591Z,99937.06
2022-11-20T18:30:12.348Z,99942.31
2022-11-20T18:32:39.752Z,99962.47
2022-11-20T18:35:07.863Z,99963.34
2022-11-20T18:37:35.215Z,99965.84
2022-11-20T18:40:04.965Z,99946.84
2022-11-20T18:42:51.095Z,99957.00
2022-11-20T18:45:18.447Z,99951.19
2022-11-20T18:47:45.663Z,99950.28
2022-11-20T18:50:13.038Z,99943.72
2022-11-20T18:52:42.120Z,99924.66
2022-11-20T18:55:11.308Z,99946.41
2022-11-20T18:57:40.526Z,99932.28
2022-11-20T19:00:11.358Z,99935.56
2022-11-20T19:05:26.574Z,99937.16
2022-11-20T19:07:53.988Z,99924.66
2022-11-20T19:10:24.450Z,99926.94
2022-11-20T19:12:53.125Z,99922.84
2022-11-20T19:15:20.448Z,99917.63
2022-11-20T19:17:47.933Z,99910.78
2022-11-20T19:20:15.477Z,99909.00
2022-11-20T19:22:42.742Z,99925.66
2022-11-20T19:25:10.230Z,99909.88
2022-11-20T19:27:39.210Z,99914.69
2022-11-20T19:30:10.323Z,99923.03
2022-11-20T19:32:37.664Z,99918.16
2022-11-20T19:35:05.965Z,99924.78
2022-11-20T19:37:34.348Z,99917.13
2022-11-20T19:40:05.439Z,99909.53
2022-11-20T19:42:33.024Z,99902.16
2022-11-20T19:45:01.624Z,99908.84
2022-11-20T19:48:00.682Z,99917.34
2022-11-20T19:50:19.494Z,99917.34
2022-11-20T19:52:46.694Z,99914.81
2022-11-20T19:55:14.187Z,99929.78
2022-11-20T19:57:41.363Z,99931.41
2022-11-20T20:00:12.471Z,99941.34
2022-11-20T20:02:39.644Z,99935.50
2022-11-20T20:05:07.823Z,99941.59
2022-11-20T20:07:35.134Z,99960.00
2022-11-20T20:10:02.448Z,99945.97
2022-11-20T20:12:31.058Z,99946.72
2022-11-20T20:14:58.357Z,99944.97
2022-11-20T20:17:27.236Z,99954.13
2022-11-20T20:19:54.572Z,99960.16
2022-11-20T20:22:21.966Z,99954.41
2022-11-20T20:24:49.219Z,99947.78
2022-11-20T20:27:16.502Z,99942.06
2022-11-20T20:29:44.043Z,99956.56
2022-11-20T20:32:11.377Z,99957.72
2022-11-20T20:34:39.989Z,99945.38
2022-11-20T20:37:07.289Z,99942.81
2022-11-20T20:39:34.590Z,99939.69
2022-11-20T20:42:02.192Z,99959.97
2022-11-20T20:44:48.314Z,99956.00
2022-11-20T20:47:15.659Z,99962.03
2022-11-20T20:49:44.371Z,99957.13
2022-11-20T20:52:11.615Z,99948.13
2022-11-20T20:54:38.919Z,99957.53
2022-11-20T20:57:06.114Z,99971.88
2022-11-20T20:59:33.575Z,99973.75
2022-11-20T21:02:00.937Z,99971.28
2022-11-20T21:04:28.562Z,99972.94
2022-11-20T21:06:57.217Z,99972.09
2022-11-20T21:09:24.762Z,99969.56
2022-11-20T21:11:52.471Z,99965.97
2022-11-20T21:14:20.147Z,99949.97
2022-11-20T21:16:47.358Z,99940.69
2022-11-20T21:19:15.289Z,99943.22
2022-11-20T21:22:00.647Z,99951.41
2022-11-20T21:24:30.826Z,99956.50
2022-11-20T21:26:59.063Z,99965.56
2022-11-20T21:29:27.687Z,99960.56
2022-11-20T21:31:55.602Z,99968.16
2022-11-20T21:34:23.972Z,99970.72
2022-11-20T21:36:51.902Z,99960.78
2022-11-20T21:39:21.857Z,99940.00
2022-11-20T21:41:50.703Z,99936.56
2022-11-20T21:44:33.350Z,99943.38
2022-11-20T21:47:00.686Z,99941.56
2022-11-20T21:49:28.037Z,99937.38
2022-11-20T21:51:55.370Z,99929.13
2022-11-20T21:54:22.976Z,99944.38
2022-11-20T21:56:51.877Z,99950.31
2022-11-20T21:59:19.231Z,99954.75
2022-11-20T22:01:46.811Z,99955.75
2022-11-20T22:04:18.247Z,99944.97
2022-11-20T22:06:45.508Z,99952.44
2022-11-20T22:09:12.903Z,99943.28
2022-11-20T22:11:40.195Z,99937.50
2022-11-20T22:14:22.727Z,99921.31
2022-11-20T22:16:52.281Z,99947.34
2022-11-20T22:19:20.872Z,99934.72
2022-11-20T22:21:49.488Z,99943.78
2022-11-20T22:24:18.731Z,99951.38
2022-11-20T22:26:46.599Z,99953.00
2022-11-20T22:29:16.642Z,99954.63
2022-11-20T22:31:44.020Z,99942.06
2022-11-20T22:34:13.303Z,99936.88
2022-11-20T22:36:41.391Z,99942.47
2022-11-20T22:39:09.457Z,99933.41
2022-11-20T22:41:36.885Z,99945.63
2022-11-20T22:44:06.501Z,99955.69
2022-11-20T22:46:37.028Z,99941.47
2022-11-20T22:49:06.289Z,99935.75
2022-11-20T22:51:35.628Z,99916.19
2022-11-20T22:54:03.815Z,99931.63
2022-11-20T22:56:31.484Z,99928.22
2022-11-20T22:58:59.161Z,99923.06
2022-11-20T23:01:28.360Z,99930.63
2022-11-20T23:03:58.724Z,99917.56
2022-11-20T23:06:26.367Z,99924.13
2022-11-20T23:08:54.244Z,99929.13
2022-11-20T23:11:23.963Z,99916.59
2022-11-20T23:13:53.299Z,99908.28
2022-11-20T23:16:21.082Z,99900.81
2022-11-20T23:18:48.397Z,99901.84
2022-11-20T23:21:18.901Z,99896.41
2022-11-20T23:23:49.074Z,99899.03
2022-11-20T23:26:17.477Z,99886.69
2022-11-20T23:28:44.926Z,99900.13
2022-11-20T23:31:13.317Z,99899.47
2022-11-20T23:33:43.556Z,99911.25
2022-11-20T23:36:11.690Z,99908.03
2022-11-20T23:38:40.629Z,99904.88
2022-11-20T23:41:08.403Z,99912.31
2022-11-20T23:43:35.864Z,99911.31
2022-11-20T23:46:04.310Z,99902.94
2022-11-20T23:48:33.850Z,99890.34
2022-11-20T23:51:01.760Z,99886.22
2022-11-20T23:53:29.121Z,99889.56
2022-11-20T23:55:59.684Z,99880.69
2022-11-20T23:58:31.512Z,99879.47
